createdAt,value
2023-03-02T00:38:17.894Z,5.64
2023-03-02T00:39:17.848Z,5.62
2023-03-02T00:40:17.976Z,5.57
2023-03-02T00:41:18.113Z,5.62
2023-03-02T00:42:18.275Z,5.59
2023-03-02T00:43:18.505Z,5.53
2023-03-02T00:44:18.618Z,5.53
2023-03-02T00:45:18.774Z,5.54
2023-03-02T00:46:19.029Z,5.39
2023-03-02T00:47:19.216Z,5.38
2023-03-02T00:48:19.403Z,5.42
2023-03-02T00:49:19.529Z,5.43
2023-03-02T00:50:19.651Z,5.46
2023-03-02T00:51:19.788Z,5.47
2023-03-02T00:52:19.920Z,5.47
2023-03-02T00:53:20.042Z,5.47
2023-03-02T00:54:20.175Z,5.52
2023-03-02T00:55:20.316Z,5.50
2023-03-02T00:56:20.442Z,5.50
2023-03-02T00:57:20.565Z,5.47
2023-03-02T00:58:20.688Z,5.34
2023-03-02T00:59:20.813Z,5.21
2023-03-02T01:00:20.931Z,5.29
2023-03-02T01:01:21.080Z,5.31
2023-03-02T01:02:21.273Z,5.34
2023-03-02T01:03:21.400Z,5.36
2023-03-02T01:04:21.463Z,5.42
2023-03-02T01:05:21.621Z,5.43
2023-03-02T01:06:21.746Z,5.42
2023-03-02T01:07:21.875Z,5.46
2023-03-02T01:08:22.017Z,5.50
2023-03-02T01:09:22.161Z,5.47
2023-03-02T01:10:22.315Z,5.50
2023-03-02T01:11:22.433Z,5.46
2023-03-02T01:12:22.553Z,5.47
2023-03-02T01:13:22.711Z,5.45
2023-03-02T01:14:22.809Z,5.31
2023-03-02T01:15:22.951Z,5.28
2023-03-02T01:16:23.095Z,5.24
2023-03-02T01:17:23.192Z,5.28
2023-03-02T01:18:23.329Z,5.29
2023-03-02T01:19:23.453Z,5.32
2023-03-02T01:20:23.593Z,5.32
2023-03-02T01:21:23.727Z,5.34
2023-03-02T01:22:23.862Z,5.36
2023-03-02T01:23:23.987Z,5.38
2023-03-02T01:24:24.110Z,5.39
2023-03-02T01:25:24.251Z,5.41
2023-03-02T01:26:24.379Z,5.38
2023-03-02T01:27:24.510Z,5.41
2023-03-02T01:28:24.649Z,5.43
2023-03-02T01:29:24.807Z,5.42
2023-03-02T01:30:24.978Z,5.42
2023-03-02T01:31:25.219Z,5.41
2023-03-02T01:32:25.395Z,5.47
2023-03-02T01:33:25.596Z,5.47
2023-03-02T01:34:25.801Z,5.47
2023-03-02T01:36:26.214Z,5.46
2023-03-02T01:37:26.424Z,5.25
2023-03-02T01:38:26.658Z,5.35
2023-03-02T01:39:26.848Z,5.34
2023-03-02T01:40:27.077Z,5.34
2023-03-02T01:41:27.349Z,5.36
2023-03-02T01:42:27.487Z,5.39
2023-03-02T01:43:27.686Z,5.41
2023-03-02T01:44:27.888Z,5.43
2023-03-02T01:45:28.255Z,5.43
2023-03-02T01:46:28.471Z,5.45
2023-03-02T01:47:28.750Z,5.32
2023-03-02T01:48:29.014Z,5.41
2023-03-02T01:49:29.250Z,5.45
2023-03-02T01:50:29.416Z,5.41
2023-03-02T01:51:29.586Z,5.42
2023-03-02T01:52:29.802Z,5.42
2023-03-02T01:54:30.373Z,5.43
2023-03-02T01:55:30.611Z,5.47
2023-03-02T01:56:31.331Z,5.45
2023-03-02T01:57:31.031Z,5.46
2023-03-02T01:58:31.160Z,5.50
2023-03-02T01:59:31.297Z,5.52
2023-03-02T02:00:31.428Z,5.50
2023-03-02T02:02:31.681Z,5.52
2023-03-02T02:54:07.853Z,4.60
2023-03-02T02:55:08.008Z,4.58
2023-03-02T02:56:08.218Z,4.51
2023-03-02T02:57:08.406Z,4.53
2023-03-02T02:58:08.637Z,4.49
2023-03-02T02:59:08.867Z,4.39
2023-03-02T03:00:09.087Z,4.41
2023-03-02T03:49:17.791Z,5.11
2023-03-02T04:42:27.893Z,4.45
2023-03-02T04:43:28.101Z,4.52
2023-03-02T04:44:28.322Z,4.44
2023-03-02T04:45:28.559Z,4.47
2023-03-02T04:46:28.860Z,4.44
2023-03-02T04:47:28.859Z,4.53
2023-03-02T04:48:29.123Z,4.59
2023-03-02T04:49:29.326Z,4.65
2023-03-02T04:50:29.533Z,4.74
2023-03-02T04:51:29.727Z,4.79
2023-03-02T04:52:29.928Z,4.60
2023-03-02T04:53:30.133Z,4.65
2023-03-02T04:54:30.360Z,4.63
2023-03-02T04:55:30.573Z,4.39
2023-03-02T04:56:31.110Z,4.51
2023-03-02T04:57:30.980Z,4.38
2023-03-02T04:58:30.765Z,4.27
2023-03-02T04:59:30.771Z,4.31
2023-03-02T05:00:33.274Z,4.24
2023-03-02T05:01:30.780Z,4.13
2023-03-02T05:02:30.814Z,4.08
2023-03-02T05:31:30.278Z,4.84
2023-03-02T05:33:30.072Z,4.88
2023-03-02T05:34:30.053Z,4.94
2023-03-02T05:35:30.051Z,4.86
2023-03-02T05:36:30.011Z,4.80
2023-03-02T05:37:29.981Z,4.67
2023-03-02T05:38:29.974Z,4.03
2023-03-02T05:39:30.673Z,3.93
2023-03-02T05:40:30.016Z,3.85
2023-03-02T05:41:30.037Z,3.80
2023-03-02T05:42:30.024Z,3.92
2023-03-02T05:43:30.034Z,3.65
2023-03-02T05:44:30.035Z,3.54
2023-03-02T05:45:30.049Z,3.38
2023-03-02T05:46:30.161Z,3.31
2023-03-02T05:47:30.089Z,3.34
2023-03-02T05:48:30.113Z,3.39
2023-03-02T05:49:30.127Z,3.35
2023-03-02T05:50:30.144Z,3.52
2023-03-02T05:51:30.155Z,3.45
2023-03-02T05:52:30.217Z,3.36
2023-03-02T05:53:30.320Z,3.27
2023-03-02T05:54:30.212Z,3.32
2023-03-02T05:55:30.223Z,3.09
2023-03-02T05:56:30.470Z,2.98
2023-03-02T05:57:30.218Z,2.96
2023-03-02T05:58:30.214Z,2.99
2023-03-02T05:59:30.204Z,2.99
2023-03-02T06:00:30.201Z,2.93
2023-03-02T06:01:30.221Z,3.07
2023-03-02T06:02:30.184Z,3.20
2023-03-02T06:03:30.218Z,3.35
2023-03-02T06:04:30.120Z,3.48
2023-03-02T06:05:30.178Z,3.46
2023-03-02T06:35:30.935Z,3.86
2023-03-02T08:39:37.877Z,7.31
2023-03-02T08:40:38.233Z,7.40
2023-03-02T08:41:38.312Z,7.44
2023-03-02T08:42:38.580Z,7.44
2023-03-02T08:43:38.688Z,7.53
2023-03-02T08:44:38.924Z,7.55
2023-03-02T08:45:39.063Z,7.60
2023-03-02T08:46:39.219Z,7.65
2023-03-02T08:47:39.408Z,7.71
2023-03-02T08:48:39.606Z,7.77
2023-03-02T08:49:40.193Z,7.82
2023-03-02T08:50:39.756Z,7.82
2023-03-02T08:51:39.720Z,7.72
2023-03-02T08:52:39.726Z,7.78
2023-03-02T08:53:39.676Z,7.88
2023-03-02T08:54:39.701Z,7.96
2023-03-02T08:55:39.634Z,8.00
2023-03-02T08:56:39.609Z,7.99
2023-03-02T08:57:39.578Z,7.96
2023-03-02T08:58:39.566Z,7.92
2023-03-02T08:59:39.561Z,7.91
2023-03-02T09:01:39.478Z,7.91
2023-03-02T09:02:39.364Z,7.96
2023-03-02T09:03:39.298Z,8.05
2023-03-02T09:04:39.367Z,8.09
2023-03-02T09:05:39.161Z,8.13
2023-03-02T09:06:39.088Z,8.16
2023-03-02T09:07:39.018Z,8.24
2023-03-02T09:08:38.994Z,8.23
2023-03-02T09:09:38.881Z,8.30
2023-03-02T09:10:38.820Z,8.30
2023-03-02T09:11:38.736Z,8.20
2023-03-02T09:12:38.710Z,8.34
2023-03-02T09:13:38.587Z,8.20
2023-03-02T09:14:38.564Z,8.30
2023-03-02T09:15:38.449Z,8.36
2023-03-02T09:16:38.588Z,8.44
2023-03-02T09:17:38.733Z,8.47
2023-03-02T09:18:38.871Z,8.55
2023-03-02T09:19:39.077Z,8.57
2023-03-02T09:20:39.280Z,8.52
2023-03-02T09:21:39.452Z,8.60
2023-03-02T09:22:39.654Z,8.71
2023-03-02T09:23:39.847Z,8.75
2023-03-02T09:24:40.169Z,8.83
2023-03-02T09:25:40.322Z,8.54
2023-03-02T09:27:40.426Z,8.67
2023-03-02T09:28:40.380Z,8.74
2023-03-02T09:29:40.343Z,8.82
2023-03-02T09:31:40.273Z,8.93
2023-03-02T09:32:40.377Z,8.98
2023-03-02T09:34:40.101Z,9.00
2023-03-02T09:35:40.035Z,8.85
2023-03-02T09:37:39.958Z,8.79
2023-03-02T09:39:39.860Z,8.79
2023-03-02T09:42:44.167Z,9.24
2023-03-02T09:58:38.090Z,9.61
2023-03-02T09:59:37.984Z,9.55
2023-03-02T10:00:37.923Z,9.55
2023-03-02T10:01:37.883Z,9.35
2023-03-02T10:02:37.854Z,9.58
2023-03-02T10:04:37.800Z,9.73
2023-03-02T10:13:38.732Z,9.90
2023-03-02T10:25:37.744Z,10.24
2023-03-02T10:28:38.716Z,10.25
2023-03-02T10:39:39.228Z,10.03
2023-03-02T12:03:38.266Z,12.08
2023-03-02T12:13:37.934Z,12.52
2023-03-02T12:14:37.988Z,12.62
2023-03-02T12:15:38.187Z,12.64
2023-03-02T12:16:38.344Z,12.67
2023-03-02T12:17:38.444Z,12.73
2023-03-02T12:18:38.532Z,12.82
2023-03-02T12:19:38.726Z,12.87
2023-03-02T12:20:38.755Z,12.82
2023-03-02T12:21:38.944Z,12.70
2023-03-02T12:22:39.074Z,12.76
2023-03-02T12:23:39.177Z,12.64
2023-03-02T12:24:39.303Z,12.72
2023-03-02T12:25:39.392Z,12.72
2023-03-02T12:26:39.583Z,12.77
2023-03-02T12:27:39.713Z,12.83
2023-03-02T12:28:39.769Z,12.90
2023-03-02T12:29:39.948Z,12.96
2023-03-02T12:30:40.136Z,13.03
2023-03-02T12:31:40.194Z,13.03
2023-03-02T12:32:40.329Z,13.11
2023-03-02T12:33:40.435Z,13.19
2023-03-02T12:34:40.507Z,13.34
2023-03-02T12:35:40.698Z,13.43
2023-03-02T12:36:40.848Z,13.46
2023-03-02T12:37:41.017Z,13.39
2023-03-02T12:38:41.167Z,13.38
2023-03-02T12:39:41.280Z,13.45
2023-03-02T12:40:41.422Z,13.50
2023-03-02T12:41:41.509Z,13.69
2023-03-02T12:42:41.660Z,13.76
2023-03-02T12:43:41.832Z,13.80
2023-03-02T12:44:41.931Z,13.84
2023-03-02T12:45:42.017Z,13.85
2023-03-02T12:46:42.154Z,13.98
2023-03-02T12:57:42.590Z,14.55
2023-03-02T12:58:42.397Z,14.31
2023-03-02T12:59:42.205Z,14.50
2023-03-02T13:00:42.067Z,14.63
2023-03-02T13:01:41.831Z,14.56
2023-03-02T13:02:41.693Z,14.66
2023-03-02T13:03:41.481Z,14.47
2023-03-02T13:04:41.274Z,14.62
2023-03-02T13:05:41.075Z,14.88
2023-03-02T13:06:40.896Z,14.95
2023-03-02T13:07:40.743Z,15.04
2023-03-02T13:08:41.173Z,15.01
2023-03-02T13:09:47.771Z,14.95
2023-03-02T13:10:41.232Z,15.14
2023-03-02T13:11:40.023Z,15.28
2023-03-02T13:12:39.811Z,15.33
2023-03-02T13:13:39.623Z,15.36
2023-03-02T13:14:39.412Z,15.54
2023-03-02T13:15:39.202Z,15.63
2023-03-02T13:16:39.016Z,15.61
2023-03-02T13:17:38.806Z,15.67
2023-03-02T13:18:38.601Z,15.73
2023-03-02T13:19:38.426Z,15.56
2023-03-02T13:20:38.289Z,15.61
2023-03-02T13:21:38.159Z,15.68
2023-03-02T13:22:38.076Z,15.68
2023-03-02T13:23:37.865Z,15.25
2023-03-02T13:48:37.794Z,16.77
2023-03-02T13:49:37.946Z,16.54
2023-03-02T13:50:38.052Z,16.67
2023-03-02T13:51:38.163Z,16.89
2023-03-02T13:52:38.263Z,17.04
2023-03-02T13:53:38.476Z,17.12
2023-03-02T13:54:38.504Z,17.16
2023-03-02T13:55:38.688Z,17.26
2023-03-02T13:56:38.806Z,17.27
2023-03-02T13:57:38.954Z,17.06
2023-03-02T13:58:39.099Z,17.08
2023-03-02T13:59:39.137Z,17.27
2023-03-02T14:00:39.232Z,17.29
2023-03-02T14:01:39.427Z,17.29
2023-03-02T14:02:39.491Z,17.29
2023-03-02T14:03:39.546Z,17.26
2023-03-02T14:04:39.757Z,17.32
2023-03-02T14:05:39.848Z,17.40
2023-03-02T14:06:39.888Z,17.44
2023-03-02T14:07:39.973Z,17.40
2023-03-02T14:08:40.153Z,17.43
2023-03-02T14:09:40.205Z,17.43
2023-03-02T14:10:40.392Z,17.39
2023-03-02T15:04:47.747Z,15.88
2023-03-02T15:06:48.035Z,15.85
2023-03-02T16:05:50.382Z,13.84
2023-03-02T17:00:57.913Z,12.49
2023-03-02T17:01:57.963Z,12.48
2023-03-02T17:02:58.192Z,12.39
2023-03-02T17:03:58.386Z,12.36
2023-03-02T17:04:58.576Z,12.36
2023-03-02T17:05:58.700Z,12.35
2023-03-02T17:07:00.709Z,12.29
2023-03-02T17:07:58.827Z,12.28
2023-03-02T17:08:58.738Z,12.28
2023-03-02T17:09:58.647Z,12.28
2023-03-02T17:10:58.566Z,12.24
2023-03-02T17:11:58.745Z,12.24
2023-03-02T17:12:58.965Z,12.21
2023-03-02T17:13:59.121Z,12.20
2023-03-02T17:14:59.287Z,12.16
2023-03-02T17:15:59.467Z,12.16
2023-03-02T17:16:59.591Z,12.10
2023-03-02T17:17:59.843Z,12.10
2023-03-02T17:19:00.317Z,12.07
2023-03-02T17:19:59.867Z,12.02
2023-03-02T17:20:59.820Z,12.02
2023-03-02T17:21:59.731Z,12.00
2023-03-02T17:22:59.650Z,11.98
2023-03-02T17:23:59.863Z,11.94
2023-03-02T17:25:00.037Z,11.96
2023-03-02T17:26:00.218Z,11.91
2023-03-02T17:27:00.407Z,11.90
2023-03-02T17:28:00.510Z,11.90
2023-03-02T17:29:00.668Z,11.83
2023-03-02T17:30:01.219Z,11.86
2023-03-02T17:31:02.988Z,11.84
2023-03-02T17:32:01.010Z,11.82
2023-03-02T17:33:00.828Z,11.82
2023-03-02T17:34:00.703Z,11.80
2023-03-02T17:35:00.567Z,11.70
2023-03-02T17:36:00.660Z,11.72
2023-03-02T17:37:00.919Z,11.73
2023-03-02T17:38:01.065Z,11.69
2023-03-02T17:39:01.130Z,11.69
2023-03-02T17:40:01.314Z,11.69
2023-03-02T17:41:01.425Z,11.65
2023-03-02T17:42:01.617Z,11.66
2023-03-02T17:43:01.758Z,11.65
2023-03-02T17:44:01.932Z,11.62
2023-03-02T17:45:02.057Z,11.59
2023-03-02T17:46:02.307Z,11.59
2023-03-02T17:47:02.415Z,11.58
2023-03-02T19:09:02.387Z,10.03
2023-03-02T19:10:02.273Z,10.00
2023-03-02T19:11:02.198Z,10.01
2023-03-02T19:12:02.086Z,10.01
2023-03-02T19:13:01.986Z,9.99
2023-03-02T19:14:01.915Z,9.94
2023-03-02T19:15:01.794Z,9.97
2023-03-02T19:16:01.737Z,9.96
2023-03-02T19:17:01.604Z,9.94
2023-03-02T19:18:01.507Z,9.94
2023-03-02T19:19:01.464Z,9.93
2023-03-02T19:20:01.419Z,9.90
2023-03-02T19:21:01.399Z,9.85
2023-03-02T19:22:01.329Z,9.85
2023-03-02T19:23:01.293Z,9.86
2023-03-02T19:24:01.252Z,9.85
2023-03-02T19:25:01.224Z,9.85
2023-03-02T19:26:01.188Z,9.82
2023-03-02T19:27:01.280Z,9.82
2023-03-02T19:28:01.362Z,9.79
2023-03-02T19:29:01.559Z,9.79
2023-03-02T19:30:01.666Z,9.78
2023-03-02T19:31:01.789Z,9.76
2023-03-02T19:32:01.975Z,9.76
2023-03-02T19:33:02.045Z,9.72
2023-03-02T19:34:02.156Z,9.71
2023-03-02T19:35:02.255Z,9.68
2023-03-02T19:36:02.397Z,9.68
2023-03-02T19:37:02.458Z,9.68
2023-03-02T19:38:02.556Z,9.66
2023-03-02T19:39:02.681Z,9.62
2023-03-02T19:40:02.795Z,9.63
2023-03-02T19:41:02.918Z,9.63
2023-03-02T19:42:03.043Z,9.61
2023-03-02T19:43:03.192Z,9.62
2023-03-02T19:44:03.346Z,9.59
2023-03-02T19:45:03.498Z,9.57
2023-03-02T19:46:03.663Z,9.59
2023-03-02T19:47:03.769Z,9.58
2023-03-02T19:48:03.926Z,9.41
2023-03-02T19:49:04.060Z,9.41
2023-03-02T19:50:04.212Z,9.44
2023-03-02T19:51:04.353Z,9.45
2023-03-02T19:52:04.518Z,9.44
2023-03-02T19:53:04.659Z,9.40
2023-03-02T19:54:04.841Z,9.41
2023-03-02T19:55:04.975Z,9.38
2023-03-02T19:56:05.144Z,9.37
2023-03-02T19:57:05.310Z,9.35
2023-03-02T19:58:05.469Z,9.35
2023-03-02T19:59:05.610Z,9.35
2023-03-02T20:00:05.775Z,9.34
2023-03-02T20:01:05.832Z,9.33
2023-03-02T20:02:06.030Z,9.33
2023-03-02T20:03:06.839Z,9.30
2023-03-02T20:04:06.150Z,9.30
2023-03-02T20:05:06.096Z,9.29
2023-03-02T20:06:06.052Z,9.30
2023-03-02T20:07:06.025Z,9.26
2023-03-02T20:08:05.978Z,9.24
2023-03-02T20:09:05.957Z,9.23
2023-03-02T20:10:05.892Z,9.21
2023-03-02T20:11:05.869Z,9.19
2023-03-02T20:12:05.818Z,9.17
2023-03-02T20:13:05.766Z,9.17
2023-03-02T20:14:05.727Z,9.17
2023-03-02T20:15:05.690Z,9.13
2023-03-02T20:16:05.658Z,9.14
2023-03-02T20:17:05.607Z,9.16
2023-03-02T20:18:05.592Z,9.17
2023-03-02T20:19:05.561Z,9.13
2023-03-02T20:20:05.531Z,9.13
2023-03-02T20:21:05.510Z,9.10
2023-03-02T20:22:05.474Z,9.10
2023-03-02T20:23:05.416Z,9.06
2023-03-02T20:24:05.380Z,9.06
2023-03-02T20:25:05.336Z,9.06
2023-03-02T20:26:05.322Z,9.03
2023-03-02T20:27:05.262Z,8.99
2023-03-02T20:28:05.224Z,8.99
2023-03-02T20:29:05.212Z,8.96
2023-03-02T20:30:05.162Z,8.96
2023-03-02T20:31:05.233Z,8.95
2023-03-02T20:32:05.197Z,8.90
2023-03-02T20:33:05.097Z,8.87
2023-03-02T20:34:05.078Z,8.89
2023-03-02T20:35:05.047Z,8.86
2023-03-02T20:36:05.019Z,8.86
2023-03-02T20:37:04.982Z,8.82
2023-03-02T21:50:07.831Z,7.68
2023-03-02T21:51:07.948Z,7.65
2023-03-02T21:52:08.173Z,7.63
2023-03-02T21:53:08.276Z,7.65
2023-03-02T21:54:08.500Z,7.63
2023-03-02T21:55:08.711Z,7.58
2023-03-02T21:56:08.823Z,7.58
2023-03-02T21:57:09.046Z,7.58
2023-03-02T21:58:09.144Z,7.54
2023-03-02T21:59:09.378Z,7.55
2023-03-02T22:00:09.479Z,7.51
2023-03-02T22:01:09.581Z,7.51
2023-03-02T22:02:09.831Z,7.50
2023-03-02T22:03:09.938Z,7.49
2023-03-02T22:04:10.070Z,7.47
2023-03-02T22:05:10.319Z,7.42
2023-03-02T22:06:10.441Z,7.46
2023-03-02T22:07:10.670Z,7.46
2023-03-02T22:08:10.776Z,7.43
2023-03-02T22:09:11.013Z,7.43
2023-03-02T22:10:11.223Z,7.43
2023-03-02T22:11:11.310Z,7.40
2023-03-02T22:54:17.860Z,7.05
2023-03-02T22:55:17.987Z,7.03
2023-03-02T22:56:20.081Z,6.99
2023-03-02T22:57:18.289Z,6.96
2023-03-02T22:58:18.103Z,6.94
2023-03-02T22:59:18.047Z,6.95
2023-03-02T23:00:18.010Z,6.94
2023-03-02T23:01:17.965Z,6.92
2023-03-02T23:02:17.907Z,6.92
2023-03-02T23:03:17.852Z,6.92
2023-03-02T23:04:17.840Z,6.90
2023-03-02T23:05:17.762Z,6.87
2023-03-02T23:11:17.767Z,6.77
2023-03-02T23:12:17.998Z,6.78
2023-03-02T23:13:18.146Z,6.81
2023-03-02T23:14:18.416Z,6.81
2023-03-02T23:15:18.578Z,6.78
2023-03-02T23:16:18.885Z,6.80
2023-03-02T23:17:18.987Z,6.77
2023-03-02T23:18:19.175Z,6.77
2023-03-02T23:19:19.367Z,6.77
2023-03-02T23:20:19.621Z,6.74
2023-03-02T23:21:19.812Z,6.75
2023-03-02T23:22:20.110Z,6.73
2023-03-02T23:23:20.275Z,6.74
2023-03-02T23:24:20.424Z,6.74
2023-03-02T23:25:20.614Z,6.75
2023-03-02T23:26:20.817Z,6.73
2023-03-02T23:27:20.975Z,6.73
2023-03-02T23:28:21.164Z,6.71
2023-03-02T23:29:21.425Z,6.70
2023-03-02T23:30:21.597Z,6.74
2023-03-02T23:31:21.848Z,6.70
2023-03-02T23:32:22.078Z,6.70
2023-03-02T23:33:22.200Z,6.68
2023-03-02T23:34:22.393Z,6.67
2023-03-02T23:35:22.593Z,6.66
2023-03-02T23:36:22.777Z,6.61
2023-03-02T23:37:22.944Z,6.63
2023-03-02T23:38:23.139Z,6.60
2023-03-02T23:39:23.311Z,6.61
2023-03-02T23:40:23.521Z,6.56
2023-03-02T23:41:23.751Z,6.56
2023-03-02T23:42:23.908Z,6.54
2023-03-02T23:43:24.055Z,6.56
2023-03-02T23:44:24.236Z,6.53
2023-03-02T23:45:24.401Z,6.50
2023-03-02T23:46:24.583Z,6.51
2023-03-02T23:47:24.755Z,6.53
2023-03-02T23:48:24.920Z,6.51
2023-03-02T23:49:25.101Z,6.50
2023-03-02T23:50:25.291Z,6.51
2023-03-02T23:51:25.508Z,6.51
2023-03-02T23:52:25.669Z,6.54
2023-03-02T23:53:25.906Z,6.53
2023-03-02T23:54:26.095Z,6.53
2023-03-02T23:55:26.297Z,6.51
2023-03-02T23:56:26.529Z,6.51
2023-03-02T23:57:26.718Z,6.51
2023-03-02T23:58:26.888Z,6.47
2023-03-02T23:59:27.142Z,6.50
